sensor_id;sensor_type;location;lat;lon;timestamp;pressure;altitude;pressure_sealevel;temperature;humidity
47809;BME280;33573;38.790;-77.084;2024-03-23T00:54:25;101888.24;;;17.59;24.88
47809;BME280;33573;38.790;-77.084;2024-03-23T00:56:51;101896.80;;;17.47;24.78
47809;BME280;33573;38.790;-77.084;2024-03-23T00:59:16;101896.27;;;17.42;24.83
47809;BME280;33573;38.790;-77.084;2024-03-23T01:01:42;101894.80;;;17.22;24.80
47809;BME280;33573;38.790;-77.084;2024-03-23T01:04:07;101896.12;;;17.39;24.85
47809;BME280;33573;38.790;-77.084;2024-03-23T01:06:33;101890.93;;;17.64;24.83
47809;BME280;33573;38.790;-77.084;2024-03-23T01:08:58;101887.06;;;17.08;24.91
47809;BME280;33573;38.790;-77.084;2024-03-23T01:11:24;101883.66;;;17.53;24.94
47809;BME280;33573;38.790;-77.084;2024-03-23T01:13:49;101880.31;;;16.92;25.05
47809;BME280;33573;38.790;-77.084;2024-03-23T01:16:14;101880.35;;;17.54;24.96
47809;BME280;33573;38.790;-77.084;2024-03-23T01:18:40;101880.58;;;17.54;24.98
47809;BME280;33573;38.790;-77.084;2024-03-23T01:21:05;101870.69;;;17.69;24.85
47809;BME280;33573;38.790;-77.084;2024-03-23T01:23:31;101870.06;;;17.38;24.90
47809;BME280;33573;38.790;-77.084;2024-03-23T01:25:56;101858.97;;;17.55;24.96
47809;BME280;33573;38.790;-77.084;2024-03-23T01:28:22;101854.35;;;17.50;25.03
47809;BME280;33573;38.790;-77.084;2024-03-23T01:30:48;101858.54;;;17.52;24.98
47809;BME280;33573;38.790;-77.084;2024-03-23T01:33:13;101853.70;;;16.93;25.07
47809;BME280;33573;38.790;-77.084;2024-03-23T01:35:38;101844.52;;;17.43;25.07
47809;BME280;33573;38.790;-77.084;2024-03-23T01:38:04;101832.78;;;17.05;25.18
47809;BME280;33573;38.790;-77.084;2024-03-23T01:40:29;101824.75;;;17.24;25.04
47809;BME280;33573;38.790;-77.084;2024-03-23T01:42:56;101825.54;;;17.26;25.05
47809;BME280;33573;38.790;-77.084;2024-03-23T01:45:20;101824.00;;;17.34;25.01
47809;BME280;33573;38.790;-77.084;2024-03-23T01:47:46;101823.46;;;17.53;25.04
47809;BME280;33573;38.790;-77.084;2024-03-23T01:50:11;101823.19;;;17.35;25.02
47809;BME280;33573;38.790;-77.084;2024-03-23T01:52:37;101816.25;;;17.25;24.90
47809;BME280;33573;38.790;-77.084;2024-03-23T01:55:02;101809.36;;;17.76;24.85
47809;BME280;33573;38.790;-77.084;2024-03-23T01:57:28;101802.51;;;17.33;24.99
47809;BME280;33573;38.790;-77.084;2024-03-23T01:59:53;101794.72;;;17.27;25.03
47809;BME280;33573;38.790;-77.084;2024-03-23T02:02:18;101790.18;;;17.37;25.17
47809;BME280;33573;38.790;-77.084;2024-03-23T02:04:44;101784.90;;;17.27;25.10
47809;BME280;33573;38.790;-77.084;2024-03-23T02:07:10;101793.72;;;17.41;24.96
47809;BME280;33573;38.790;-77.084;2024-03-23T02:09:35;101777.65;;;17.43;24.95
47809;BME280;33573;38.790;-77.084;2024-03-23T02:12:03;101779.92;;;17.63;25.02
47809;BME280;33573;38.790;-77.084;2024-03-23T02:14:26;101777.51;;;17.46;24.92
47809;BME280;33573;38.790;-77.084;2024-03-23T02:16:51;101779.08;;;17.60;25.06
47809;BME280;33573;38.790;-77.084;2024-03-23T02:19:17;101770.67;;;16.96;25.15
47809;BME280;33573;38.790;-77.084;2024-03-23T02:21:42;101766.22;;;17.24;25.16
47809;BME280;33573;38.790;-77.084;2024-03-23T02:24:08;101757.29;;;16.97;25.15
47809;BME280;33573;38.790;-77.084;2024-03-23T02:26:33;101758.72;;;17.44;25.19
47809;BME280;33573;38.790;-77.084;2024-03-23T02:28:59;101752.49;;;17.07;25.30
47809;BME280;33573;38.790;-77.084;2024-03-23T02:31:24;101752.89;;;17.20;25.38
47809;BME280;33573;38.790;-77.084;2024-03-23T02:33:50;101753.19;;;17.00;25.37
47809;BME280;33573;38.790;-77.084;2024-03-23T02:36:15;101748.44;;;17.16;25.45
47809;BME280;33573;38.790;-77.084;2024-03-23T02:38:41;101747.49;;;17.14;25.44
47809;BME280;33573;38.790;-77.084;2024-03-23T02:41:06;101751.23;;;17.25;25.42
47809;BME280;33573;38.790;-77.084;2024-03-23T02:43:32;101743.71;;;16.96;25.38
47809;BME280;33573;38.790;-77.084;2024-03-23T02:45:57;101737.29;;;17.16;25.42
47809;BME280;33573;38.790;-77.084;2024-03-23T02:48:22;101737.70;;;17.13;25.41
47809;BME280;33573;38.790;-77.084;2024-03-23T02:50:48;101734.47;;;17.11;25.46
47809;BME280;33573;38.790;-77.084;2024-03-23T02:53:13;101733.12;;;17.18;25.43
47809;BME280;33573;38.790;-77.084;2024-03-23T02:55:39;101724.92;;;17.09;25.49
47809;BME280;33573;38.790;-77.084;2024-03-23T02:58:04;101715.76;;;16.96;25.38
47809;BME280;33573;38.790;-77.084;2024-03-23T03:00:30;101713.68;;;17.01;25.56
47809;BME280;33573;38.790;-77.084;2024-03-23T03:02:55;101706.91;;;17.09;25.48
47809;BME280;33573;38.790;-77.084;2024-03-23T03:05:21;101700.78;;;16.69;25.58
47809;BME280;33573;38.790;-77.084;2024-03-23T03:07:46;101692.50;;;16.90;25.61
47809;BME280;33573;38.790;-77.084;2024-03-23T03:10:12;101683.99;;;17.01;25.51
47809;BME280;33573;38.790;-77.084;2024-03-23T03:12:37;101675.63;;;16.89;25.59
47809;BME280;33573;38.790;-77.084;2024-03-23T03:15:03;101671.64;;;16.92;25.55
47809;BME280;33573;38.790;-77.084;2024-03-23T03:17:28;101666.86;;;17.02;25.54
47809;BME280;33573;38.790;-77.084;2024-03-23T03:19:54;101667.54;;;16.86;25.58
47809;BME280;33573;38.790;-77.084;2024-03-23T03:22:19;101666.09;;;16.70;25.58
47809;BME280;33573;38.790;-77.084;2024-03-23T03:24:44;101658.69;;;16.59;25.65
47809;BME280;33573;38.790;-77.084;2024-03-23T03:27:10;101655.79;;;16.93;25.61
47809;BME280;33573;38.790;-77.084;2024-03-23T03:29:36;101655.24;;;16.95;25.54
47809;BME280;33573;38.790;-77.084;2024-03-23T03:32:02;101645.90;;;16.85;25.56
47809;BME280;33573;38.790;-77.084;2024-03-23T03:34:26;101637.87;;;16.81;25.67
47809;BME280;33573;38.790;-77.084;2024-03-23T03:36:52;101634.15;;;16.83;25.65
47809;BME280;33573;38.790;-77.084;2024-03-23T03:39:17;101633.82;;;16.85;25.60
47809;BME280;33573;38.790;-77.084;2024-03-23T03:41:43;101623.49;;;16.71;25.67
47809;BME280;33573;38.790;-77.084;2024-03-23T03:44:08;101621.54;;;16.76;25.67
47809;BME280;33573;38.790;-77.084;2024-03-23T03:46:34;101614.12;;;16.81;25.58
47809;BME280;33573;38.790;-77.084;2024-03-23T03:48:59;101605.04;;;16.79;25.65
47809;BME280;33573;38.790;-77.084;2024-03-23T03:51:25;101600.65;;;16.86;25.60
47809;BME280;33573;38.790;-77.084;2024-03-23T03:53:50;101596.90;;;16.76;25.64
47809;BME280;33573;38.790;-77.084;2024-03-23T03:56:16;101591.73;;;16.56;25.80
47809;BME280;33573;38.790;-77.084;2024-03-23T03:58:41;101580.61;;;16.70;25.64
47809;BME280;33573;38.790;-77.084;2024-03-23T04:01:07;101579.24;;;16.48;25.58
47809;BME280;33573;38.790;-77.084;2024-03-23T04:03:32;101573.95;;;16.67;25.66
47809;BME280;33573;38.790;-77.084;2024-03-23T04:05:58;101573.37;;;16.68;25.68
47809;BME280;33573;38.790;-77.084;2024-03-23T04:08:23;101566.79;;;16.68;25.60
47809;BME280;33573;38.790;-77.084;2024-03-23T04:10:49;101563.66;;;16.75;25.63
47809;BME280;33573;38.790;-77.084;2024-03-23T04:13:14;101561.21;;;16.66;25.67
47809;BME280;33573;38.790;-77.084;2024-03-23T04:15:40;101558.61;;;16.75;25.58
47809;BME280;33573;38.790;-77.084;2024-03-23T04:18:05;101552.53;;;16.91;25.61
47809;BME280;33573;38.790;-77.084;2024-03-23T04:20:30;101550.25;;;16.67;25.65
47809;BME280;33573;38.790;-77.084;2024-03-23T04:22:56;101548.13;;;16.52;25.75
47809;BME280;33573;38.790;-77.084;2024-03-23T04:25:21;101548.51;;;16.56;25.76
47809;BME280;33573;38.790;-77.084;2024-03-23T04:27:47;101549.20;;;16.39;25.80
47809;BME280;33573;38.790;-77.084;2024-03-23T04:30:13;101543.49;;;16.35;25.80
47809;BME280;33573;38.790;-77.084;2024-03-23T04:32:38;101538.34;;;16.50;25.78
47809;BME280;33573;38.790;-77.084;2024-03-23T04:35:04;101533.18;;;16.57;25.65
47809;BME280;33573;38.790;-77.084;2024-03-23T04:37:29;101528.90;;;16.57;25.69
47809;BME280;33573;38.790;-77.084;2024-03-23T04:39:54;101525.23;;;16.53;25.64
47809;BME280;33573;38.790;-77.084;2024-03-23T04:42:20;101521.90;;;16.59;25.60
47809;BME280;33573;38.790;-77.084;2024-03-23T04:44:45;101517.53;;;16.39;25.69
47809;BME280;33573;38.790;-77.084;2024-03-23T04:47:11;101511.06;;;16.73;25.65
47809;BME280;33573;38.790;-77.084;2024-03-23T04:49:36;101511.45;;;16.51;25.63
47809;BME280;33573;38.790;-77.084;2024-03-23T04:52:02;101506.15;;;16.35;25.77
47809;BME280;33573;38.790;-77.084;2024-03-23T04:54:27;101507.54;;;16.98;25.68
47809;BME280;33573;38.790;-77.084;2024-03-23T04:56:53;101500.93;;;16.48;25.71
47809;BME280;33573;38.790;-77.084;2024-03-23T04:59:18;101480.17;;;16.41;25.77
47809;BME280;33573;38.790;-77.084;2024-03-23T05:01:44;101482.34;;;16.44;25.73
47809;BME280;33573;38.790;-77.084;2024-03-23T05:04:09;101474.23;;;16.40;25.74
47809;BME280;33573;38.790;-77.084;2024-03-23T05:06:35;101466.41;;;16.31;25.78
47809;BME280;33573;38.790;-77.084;2024-03-23T05:09:00;101466.73;;;16.37;25.90
47809;BME280;33573;38.790;-77.084;2024-03-23T05:11:25;101468.03;;;16.21;25.90
47809;BME280;33573;38.790;-77.084;2024-03-23T05:13:51;101461.84;;;16.55;25.81
47809;BME280;33573;38.790;-77.084;2024-03-23T05:16:16;101456.05;;;16.33;25.74
47809;BME280;33573;38.790;-77.084;2024-03-23T05:18:42;101447.63;;;16.57;25.79
47809;BME280;33573;38.790;-77.084;2024-03-23T05:21:07;101439.26;;;16.23;25.78
47809;BME280;33573;38.790;-77.084;2024-03-23T05:23:33;101439.83;;;16.42;25.80
47809;BME280;33573;38.790;-77.084;2024-03-23T05:25:58;101431.16;;;16.28;25.99
47809;BME280;33573;38.790;-77.084;2024-03-23T05:28:24;101431.49;;;16.37;25.85
47809;BME280;33573;38.790;-77.084;2024-03-23T05:30:51;101427.52;;;16.04;25.99
47809;BME280;33573;38.790;-77.084;2024-03-23T05:33:15;101420.76;;;16.17;25.90
47809;BME280;33573;38.790;-77.084;2024-03-23T05:35:40;101417.19;;;16.16;26.08
47809;BME280;33573;38.790;-77.084;2024-03-23T05:38:06;101412.72;;;15.99;26.03
47809;BME280;33573;38.790;-77.084;2024-03-23T05:40:31;101410.37;;;16.07;25.86
47809;BME280;33573;38.790;-77.084;2024-03-23T05:42:57;101413.65;;;15.93;26.00
47809;BME280;33573;38.790;-77.084;2024-03-23T05:45:22;101423.03;;;16.49;25.92
47809;BME280;33573;38.790;-77.084;2024-03-23T05:47:48;101412.63;;;15.95;26.09
47809;BME280;33573;38.790;-77.084;2024-03-23T05:50:13;101405.49;;;15.97;25.99
47809;BME280;33573;38.790;-77.084;2024-03-23T05:52:39;101403.01;;;16.00;26.01
47809;BME280;33573;38.790;-77.084;2024-03-23T05:55:04;101395.42;;;16.07;25.90
47809;BME280;33573;38.790;-77.084;2024-03-23T05:57:29;101390.62;;;15.95;25.94
47809;BME280;33573;38.790;-77.084;2024-03-23T05:59:55;101390.64;;;16.06;25.92
47809;BME280;33573;38.790;-77.084;2024-03-23T06:02:20;101387.37;;;16.21;26.04
47809;BME280;33573;38.790;-77.084;2024-03-23T06:04:46;101382.58;;;16.32;26.06
47809;BME280;33573;38.790;-77.084;2024-03-23T06:07:11;101381.40;;;16.10;26.02
47809;BME280;33573;38.790;-77.084;2024-03-23T06:09:37;101377.77;;;15.91;26.09
47809;BME280;33573;38.790;-77.084;2024-03-23T06:12:03;101374.61;;;16.09;26.02
47809;BME280;33573;38.790;-77.084;2024-03-23T06:14:28;101371.77;;;15.96;26.16
47809;BME280;33573;38.790;-77.084;2024-03-23T06:16:53;101372.09;;;15.65;26.23
47809;BME280;33573;38.790;-77.084;2024-03-23T06:19:19;101366.24;;;15.79;26.16
47809;BME280;33573;38.790;-77.084;2024-03-23T06:21:44;101356.85;;;15.99;26.17
47809;BME280;33573;38.790;-77.084;2024-03-23T06:24:10;101357.95;;;16.16;26.16
47809;BME280;33573;38.790;-77.084;2024-03-23T06:26:35;101347.95;;;16.17;26.13
47809;BME280;33573;38.790;-77.084;2024-03-23T06:29:01;101348.49;;;15.89;26.17
47809;BME280;33573;38.790;-77.084;2024-03-23T06:31:26;101342.21;;;15.84;26.26
47809;BME280;33573;38.790;-77.084;2024-03-23T06:33:52;101330.62;;;16.17;26.14
47809;BME280;33573;38.790;-77.084;2024-03-23T06:36:17;101333.73;;;16.01;26.28
47809;BME280;33573;38.790;-77.084;2024-03-23T06:38:43;101324.99;;;16.09;26.26
47809;BME280;33573;38.790;-77.084;2024-03-23T06:41:08;101317.32;;;16.26;26.34
47809;BME280;33573;38.790;-77.084;2024-03-23T06:43:34;101312.59;;;16.07;26.19
47809;BME280;33573;38.790;-77.084;2024-03-23T06:45:59;101296.53;;;15.39;26.39
47809;BME280;33573;38.790;-77.084;2024-03-23T06:48:25;101301.57;;;15.52;26.50
47809;BME280;33573;38.790;-77.084;2024-03-23T06:50:54;101297.04;;;15.98;26.28
47809;BME280;33573;38.790;-77.084;2024-03-23T06:53:16;101278.46;;;15.65;26.37
47809;BME280;33573;38.790;-77.084;2024-03-23T06:55:41;101260.49;;;15.76;26.23
47809;BME280;33573;38.790;-77.084;2024-03-23T06:58:07;101262.69;;;15.97;26.27
47809;BME280;33573;38.790;-77.084;2024-03-23T07:00:32;101245.09;;;15.83;26.14
47809;BME280;33573;38.790;-77.084;2024-03-23T07:02:57;101238.31;;;15.45;26.28
47809;BME280;33573;38.790;-77.084;2024-03-23T07:05:23;101227.12;;;15.88;26.30
47809;BME280;33573;38.790;-77.084;2024-03-23T07:07:48;101222.16;;;15.85;26.33
47809;BME280;33573;38.790;-77.084;2024-03-23T07:10:14;101216.28;;;15.91;26.36
47809;BME280;33573;38.790;-77.084;2024-03-23T07:12:39;101219.02;;;15.93;26.27
47809;BME280;33573;38.790;-77.084;2024-03-23T07:15:05;101213.94;;;15.71;26.26
47809;BME280;33573;38.790;-77.084;2024-03-23T07:17:30;101208.07;;;15.57;26.32
47809;BME280;33573;38.790;-77.084;2024-03-23T07:19:56;101202.46;;;15.87;26.35
47809;BME280;33573;38.790;-77.084;2024-03-23T07:22:21;101197.29;;;15.78;26.39
47809;BME280;33573;38.790;-77.084;2024-03-23T07:24:47;101192.45;;;15.72;26.39
47809;BME280;33573;38.790;-77.084;2024-03-23T07:27:12;101185.87;;;15.73;26.43
47809;BME280;33573;38.790;-77.084;2024-03-23T07:29:38;101181.18;;;15.48;26.39
47809;BME280;33573;38.790;-77.084;2024-03-23T07:32:04;101172.43;;;15.49;26.60
47809;BME280;33573;38.790;-77.084;2024-03-23T07:34:29;101169.38;;;15.84;26.29
47809;BME280;33573;38.790;-77.084;2024-03-23T07:36:54;101165.32;;;15.67;26.43
47809;BME280;33573;38.790;-77.084;2024-03-23T07:39:20;101160.76;;;15.32;26.54
47809;BME280;33573;38.790;-77.084;2024-03-23T07:41:45;101154.60;;;15.70;26.38
47809;BME280;33573;38.790;-77.084;2024-03-23T07:44:11;101150.03;;;15.55;26.55
47809;BME280;33573;38.790;-77.084;2024-03-23T07:46:36;101147.63;;;15.51;26.58
47809;BME280;33573;38.790;-77.084;2024-03-23T07:49:01;101140.02;;;15.61;26.51
47809;BME280;33573;38.790;-77.084;2024-03-23T07:51:27;101134.25;;;15.56;26.58
47809;BME280;33573;38.790;-77.084;2024-03-23T07:53:52;101128.11;;;15.36;26.72
47809;BME280;33573;38.790;-77.084;2024-03-23T07:56:18;101119.88;;;15.52;26.53
47809;BME280;33573;38.790;-77.084;2024-03-23T07:58:43;101113.02;;;15.50;26.54
47809;BME280;33573;38.790;-77.084;2024-03-23T08:01:10;101106.62;;;15.49;26.59
47809;BME280;33573;38.790;-77.084;2024-03-23T08:03:35;101098.73;;;15.52;26.57
47809;BME280;33573;38.790;-77.084;2024-03-23T08:06:08;101101.05;;;15.51;26.53
47809;BME280;33573;38.790;-77.084;2024-03-23T08:08:26;101095.58;;;15.52;26.55
47809;BME280;33573;38.790;-77.084;2024-03-23T08:10:51;101086.67;;;15.57;26.49
47809;BME280;33573;38.790;-77.084;2024-03-23T08:13:17;101075.45;;;15.56;26.45
47809;BME280;33573;38.790;-77.084;2024-03-23T08:15:42;101073.36;;;15.58;26.48
47809;BME280;33573;38.790;-77.084;2024-03-23T08:18:07;101064.84;;;15.48;26.57
47809;BME280;33573;38.790;-77.084;2024-03-23T08:20:33;101057.65;;;15.45;26.56
47809;BME280;33573;38.790;-77.084;2024-03-23T08:22:58;101051.36;;;15.98;26.34
47809;BME280;33573;38.790;-77.084;2024-03-23T08:25:23;101045.39;;;15.40;26.59
47809;BME280;33573;38.790;-77.084;2024-03-23T08:27:49;101035.01;;;15.32;26.64
47809;BME280;33573;38.790;-77.084;2024-03-23T08:30:15;101024.25;;;15.29;26.71
47809;BME280;33573;38.790;-77.084;2024-03-23T08:32:40;101029.83;;;15.35;26.64
47809;BME280;33573;38.790;-77.084;2024-03-23T08:35:06;101029.00;;;15.44;26.58
47809;BME280;33573;38.790;-77.084;2024-03-23T08:37:31;101028.32;;;15.32;26.66
47809;BME280;33573;38.790;-77.084;2024-03-23T08:39:56;101028.99;;;15.30;26.89
47809;BME280;33573;38.790;-77.084;2024-03-23T08:42:22;101027.87;;;15.06;26.64
47809;BME280;33573;38.790;-77.084;2024-03-23T08:44:48;101021.48;;;15.55;26.67
47809;BME280;33573;38.790;-77.084;2024-03-23T08:47:13;101026.47;;;15.33;26.68
47809;BME280;33573;38.790;-77.084;2024-03-23T08:49:38;101025.27;;;15.37;26.59
47809;BME280;33573;38.790;-77.084;2024-03-23T08:52:04;101026.23;;;15.19;26.77
47809;BME280;33573;38.790;-77.084;2024-03-23T08:54:29;101024.15;;;15.45;26.57
47809;BME280;33573;38.790;-77.084;2024-03-23T08:56:55;101019.90;;;15.39;26.49
47809;BME280;33573;38.790;-77.084;2024-03-23T08:59:20;101014.66;;;15.58;26.57
47809;BME280;33573;38.790;-77.084;2024-03-23T09:01:46;101010.23;;;15.25;26.67
47809;BME280;33573;38.790;-77.084;2024-03-23T09:04:11;101012.63;;;15.17;26.72
47809;BME280;33573;38.790;-77.084;2024-03-23T09:06:37;101007.73;;;15.35;26.64
47809;BME280;33573;38.790;-77.084;2024-03-23T09:09:02;101013.34;;;15.67;26.50
47809;BME280;33573;38.790;-77.084;2024-03-23T09:11:27;101012.94;;;15.57;26.45
47809;BME280;33573;38.790;-77.084;2024-03-23T09:13:53;100995.66;;;15.72;26.32
47809;BME280;33573;38.790;-77.084;2024-03-23T09:16:19;100995.05;;;15.68;26.44
47809;BME280;33573;38.790;-77.084;2024-03-23T09:18:44;100991.10;;;15.69;26.55
47809;BME280;33573;38.790;-77.084;2024-03-23T09:21:12;100987.26;;;15.77;26.56
47809;BME280;33573;38.790;-77.084;2024-03-23T09:23:35;100981.64;;;15.42;26.51
47809;BME280;33573;38.790;-77.084;2024-03-23T09:26:04;100975.74;;;15.76;26.54
47809;BME280;33573;38.790;-77.084;2024-03-23T09:28:26;100969.31;;;15.80;26.54
47809;BME280;33573;38.790;-77.084;2024-03-23T09:30:51;100965.04;;;15.91;26.52
47809;BME280;33573;38.790;-77.084;2024-03-23T09:33:17;100951.34;;;15.67;26.65
47809;BME280;33573;38.790;-77.084;2024-03-23T09:35:43;100960.05;;;15.72;26.68
47809;BME280;33573;38.790;-77.084;2024-03-23T09:38:08;100955.52;;;16.09;26.63
47809;BME280;33573;38.790;-77.084;2024-03-23T09:40:34;100948.84;;;16.16;26.65
47809;BME280;33573;38.790;-77.084;2024-03-23T09:42:59;100933.40;;;15.95;26.72
47809;BME280;33573;38.790;-77.084;2024-03-23T09:45:28;100924.69;;;16.00;26.69
47809;BME280;33573;38.790;-77.084;2024-03-23T09:47:50;100926.57;;;16.29;26.60
47809;BME280;33573;38.790;-77.084;2024-03-23T09:50:15;100921.71;;;16.21;26.82
47809;BME280;33573;38.790;-77.084;2024-03-23T09:52:41;100924.13;;;15.98;26.84
47809;BME280;33573;38.790;-77.084;2024-03-23T09:55:08;100916.93;;;16.22;26.86
47809;BME280;33573;38.790;-77.084;2024-03-23T09:57:32;100909.29;;;16.03;26.89
47809;BME280;33573;38.790;-77.084;2024-03-23T09:59:57;100901.35;;;16.14;26.87
47809;BME280;33573;38.790;-77.084;2024-03-23T10:02:23;100903.76;;;16.12;27.00
47809;BME280;33573;38.790;-77.084;2024-03-23T10:04:48;100897.71;;;15.95;26.90
47809;BME280;33573;38.790;-77.084;2024-03-23T10:07:14;100884.56;;;16.14;26.94
47809;BME280;33573;38.790;-77.084;2024-03-23T10:09:39;100875.63;;;16.02;27.13
47809;BME280;33573;38.790;-77.084;2024-03-23T10:12:09;100872.82;;;16.13;27.01
47809;BME280;33573;38.790;-77.084;2024-03-23T10:14:30;100861.79;;;16.12;27.09
47809;BME280;33573;38.790;-77.084;2024-03-23T10:19:30;100839.59;;;16.26;27.16
47809;BME280;33573;38.790;-77.084;2024-03-23T10:21:52;100833.14;;;16.75;27.14
47809;BME280;33573;38.790;-77.084;2024-03-23T10:24:12;100837.41;;;16.34;27.06
47809;BME280;33573;38.790;-77.084;2024-03-23T10:26:37;100834.75;;;16.35;26.99
47809;BME280;33573;38.790;-77.084;2024-03-23T10:29:03;100813.06;;;16.49;26.86
47809;BME280;33573;38.790;-77.084;2024-03-23T10:31:31;100778.60;;;16.18;27.21
47809;BME280;33573;38.790;-77.084;2024-03-23T10:33:54;100762.20;;;16.16;27.27
47809;BME280;33573;38.790;-77.084;2024-03-23T10:36:20;100768.67;;;16.21;27.27
47809;BME280;33573;38.790;-77.084;2024-03-23T10:38:45;100777.02;;;16.27;27.27
47809;BME280;33573;38.790;-77.084;2024-03-23T10:41:10;100772.38;;;16.48;26.95
47809;BME280;33573;38.790;-77.084;2024-03-23T10:43:37;100766.43;;;16.47;26.99
47809;BME280;33573;38.790;-77.084;2024-03-23T10:46:01;100764.20;;;16.40;27.11
47809;BME280;33573;38.790;-77.084;2024-03-23T10:48:27;100759.42;;;16.29;27.24
47809;BME280;33573;38.790;-77.084;2024-03-23T10:50:53;100754.61;;;16.43;27.26
47809;BME280;33573;38.790;-77.084;2024-03-23T10:53:18;100742.48;;;16.21;27.36
47809;BME280;33573;38.790;-77.084;2024-03-23T10:55:43;100730.83;;;16.27;27.31
47809;BME280;33573;38.790;-77.084;2024-03-23T10:58:09;100726.68;;;16.34;27.29
47809;BME280;33573;38.790;-77.084;2024-03-23T11:00:34;100737.38;;;16.43;27.17
47809;BME280;33573;38.790;-77.084;2024-03-23T11:02:59;100738.61;;;16.38;27.28
47809;BME280;33573;38.790;-77.084;2024-03-23T11:05:30;100735.62;;;16.61;27.22
47809;BME280;33573;38.790;-77.084;2024-03-23T11:07:51;100729.83;;;16.23;27.36
47809;BME280;33573;38.790;-77.084;2024-03-23T11:10:24;100724.88;;;16.25;27.41
47809;BME280;33573;38.790;-77.084;2024-03-23T11:12:41;100729.27;;;16.37;27.32
47809;BME280;33573;38.790;-77.084;2024-03-23T11:15:12;100741.30;;;16.45;27.32
47809;BME280;33573;38.790;-77.084;2024-03-23T11:17:32;100748.94;;;16.41;27.34
47809;BME280;33573;38.790;-77.084;2024-03-23T11:19:58;100751.81;;;16.55;27.16
47809;BME280;33573;38.790;-77.084;2024-03-23T11:22:38;100738.52;;;16.52;27.19
47809;BME280;33573;38.790;-77.084;2024-03-23T11:24:50;100725.67;;;16.49;27.20
47809;BME280;33573;38.790;-77.084;2024-03-23T11:27:16;100718.09;;;16.17;27.33
47809;BME280;33573;38.790;-77.084;2024-03-23T11:29:40;100710.18;;;16.44;27.38
47809;BME280;33573;38.790;-77.084;2024-03-23T11:32:07;100708.13;;;16.38;27.46
47809;BME280;33573;38.790;-77.084;2024-03-23T11:34:31;100717.37;;;16.48;27.39
47809;BME280;33573;38.790;-77.084;2024-03-23T11:37:03;100731.43;;;16.51;27.04
47809;BME280;33573;38.790;-77.084;2024-03-23T11:39:21;100737.18;;;16.63;27.21
47809;BME280;33573;38.790;-77.084;2024-03-23T11:41:48;100739.17;;;16.56;27.24
47809;BME280;33573;38.790;-77.084;2024-03-23T11:44:16;100740.75;;;16.56;27.25
47809;BME280;33573;38.790;-77.084;2024-03-23T11:46:38;100739.63;;;16.41;27.44
47809;BME280;33573;38.790;-77.084;2024-03-23T11:49:03;100732.97;;;16.46;27.42
47809;BME280;33573;38.790;-77.084;2024-03-23T11:51:29;100713.03;;;16.23;27.48
47809;BME280;33573;38.790;-77.084;2024-03-23T11:53:54;100706.59;;;16.60;27.38
47809;BME280;33573;38.790;-77.084;2024-03-23T11:56:20;100698.16;;;16.70;27.19
47809;BME280;33573;38.790;-77.084;2024-03-23T11:58:45;100683.89;;;16.66;27.21
47809;BME280;33573;38.790;-77.084;2024-03-23T12:01:11;100686.26;;;16.39;27.50
47809;BME280;33573;38.790;-77.084;2024-03-23T12:03:36;100681.67;;;16.37;27.56
47809;BME280;33573;38.790;-77.084;2024-03-23T12:06:03;100663.73;;;16.32;27.61
47809;BME280;33573;38.790;-77.084;2024-03-23T12:08:31;100658.12;;;16.34;27.66
47809;BME280;33573;38.790;-77.084;2024-03-23T12:11:04;100665.05;;;16.42;27.62
47809;BME280;33573;38.790;-77.084;2024-03-23T12:13:20;100662.27;;;16.54;27.46
47809;BME280;33573;38.790;-77.084;2024-03-23T12:15:45;100658.08;;;16.66;27.28
47809;BME280;33573;38.790;-77.084;2024-03-23T12:18:09;100655.98;;;16.70;27.52
47809;BME280;33573;38.790;-77.084;2024-03-23T12:20:35;100663.64;;;16.31;27.67
47809;BME280;33573;38.790;-77.084;2024-03-23T12:23:05;100666.71;;;16.58;27.67
47809;BME280;33573;38.790;-77.084;2024-03-23T12:25:25;100667.74;;;16.28;27.79
47809;BME280;33573;38.790;-77.084;2024-03-23T12:27:51;100665.12;;;16.53;27.54
47809;BME280;33573;38.790;-77.084;2024-03-23T12:30:17;100664.83;;;16.52;27.52
47809;BME280;33573;38.790;-77.084;2024-03-23T12:32:42;100661.01;;;16.60;27.41
47809;BME280;33573;38.790;-77.084;2024-03-23T12:35:08;100658.11;;;16.54;27.50
47809;BME280;33573;38.790;-77.084;2024-03-23T12:37:33;100652.10;;;16.29;27.76
47809;BME280;33573;38.790;-77.084;2024-03-23T12:39:58;100644.38;;;16.31;27.78
47809;BME280;33573;38.790;-77.084;2024-03-23T12:42:24;100635.60;;;16.34;27.81
47809;BME280;33573;38.790;-77.084;2024-03-23T12:44:49;100622.02;;;16.50;27.61
47809;BME280;33573;38.790;-77.084;2024-03-23T12:47:15;100611.52;;;16.54;27.60
47809;BME280;33573;38.790;-77.084;2024-03-23T12:49:40;100607.25;;;16.57;27.51
47809;BME280;33573;38.790;-77.084;2024-03-23T12:52:06;100606.31;;;16.57;27.48
47809;BME280;33573;38.790;-77.084;2024-03-23T12:54:31;100599.12;;;16.41;27.68
47809;BME280;33573;38.790;-77.084;2024-03-23T12:56:57;100591.35;;;16.39;27.72
47809;BME280;33573;38.790;-77.084;2024-03-23T12:59:22;100584.78;;;16.34;27.87
47809;BME280;33573;38.790;-77.084;2024-03-23T13:01:48;100593.30;;;16.47;27.77
47809;BME280;33573;38.790;-77.084;2024-03-23T13:04:13;100583.67;;;16.66;27.57
47809;BME280;33573;38.790;-77.084;2024-03-23T13:06:38;100577.12;;;16.57;27.63
47809;BME280;33573;38.790;-77.084;2024-03-23T13:09:04;100577.96;;;16.62;27.58
47809;BME280;33573;38.790;-77.084;2024-03-23T13:11:30;100577.41;;;16.62;27.58
47809;BME280;33573;38.790;-77.084;2024-03-23T13:13:55;100574.80;;;16.51;27.73
47809;BME280;33573;38.790;-77.084;2024-03-23T13:16:20;100569.52;;;16.39;27.91